createdAt,value
2022-10-03T00:02:18.908Z,13.10
2022-10-03T00:04:56.707Z,13.11
2022-10-03T00:07:26.476Z,13.09
2022-10-03T00:09:56.521Z,13.09
2022-10-03T00:12:47.436Z,13.10
2022-10-03T00:15:28.509Z,13.09
2022-10-03T00:18:03.085Z,13.08
2022-10-03T00:20:48.312Z,13.05
2022-10-03T00:23:35.995Z,13.02
2022-10-03T00:26:22.593Z,12.99
2022-10-03T00:29:01.939Z,12.98
2022-10-03T00:31:47.449Z,12.96
2022-10-03T00:34:33.057Z,12.92
2022-10-03T00:37:15.136Z,12.91
2022-10-03T00:39:48.354Z,12.87
2022-10-03T00:42:35.814Z,12.85
2022-10-03T00:45:02.703Z,12.84
2022-10-03T00:47:49.366Z,12.83
2022-10-03T00:50:51.640Z,12.81
2022-10-03T00:53:38.004Z,12.80
2022-10-03T00:56:37.012Z,12.80
2022-10-03T00:59:22.256Z,12.79
2022-10-03T01:01:50.481Z,12.78
2022-10-03T01:04:19.967Z,12.81
2022-10-03T01:06:59.209Z,12.80
2022-10-03T01:09:34.877Z,12.80
2022-10-03T01:12:01.776Z,12.78
2022-10-03T01:14:28.904Z,12.75
2022-10-03T01:17:06.653Z,12.72
2022-10-03T01:19:48.129Z,12.72
2022-10-03T01:22:26.667Z,12.69
2022-10-03T01:25:11.159Z,12.66
2022-10-03T01:28:04.504Z,12.63
2022-10-03T01:30:37.217Z,12.59
2022-10-03T01:33:10.767Z,12.54
2022-10-03T01:35:56.331Z,12.50
2022-10-03T01:38:29.371Z,12.48
2022-10-03T01:41:01.067Z,12.44
2022-10-03T01:43:33.865Z,12.41
2022-10-03T01:46:18.437Z,12.41
2022-10-03T01:49:11.669Z,12.41
2022-10-03T01:51:47.674Z,12.42
2022-10-03T01:54:40.945Z,12.39
2022-10-03T01:57:21.399Z,12.36
2022-10-03T01:59:48.251Z,12.36
2022-10-03T02:02:21.860Z,12.31
2022-10-03T02:04:53.176Z,12.34
2022-10-03T02:07:29.735Z,12.34
2022-10-03T02:10:10.008Z,12.33
2022-10-03T02:12:40.432Z,12.32
2022-10-03T02:15:10.638Z,12.30
2022-10-03T02:17:47.920Z,12.28
2022-10-03T02:20:23.906Z,12.25
2022-10-03T02:22:53.311Z,12.24
2022-10-03T02:25:40.631Z,12.24
2022-10-03T02:28:10.388Z,12.21
2022-10-03T02:30:52.189Z,12.20
2022-10-03T02:33:31.992Z,12.18
2022-10-03T02:36:37.409Z,12.16
2022-10-03T02:39:06.710Z,12.15
2022-10-03T02:41:52.752Z,12.15
2022-10-03T02:44:52.032Z,12.13
2022-10-03T02:47:24.770Z,12.10
2022-10-03T02:50:10.369Z,12.05
2022-10-03T02:52:58.414Z,12.05
2022-10-03T02:55:43.286Z,12.05
2022-10-03T02:58:49.080Z,12.04
2022-10-03T03:01:27.421Z,12.04
2022-10-03T03:04:03.314Z,11.99
2022-10-03T03:06:35.882Z,11.97
2022-10-03T03:09:02.874Z,11.94
2022-10-03T03:11:41.918Z,11.92
2022-10-03T03:14:39.177Z,11.87
2022-10-03T03:17:05.968Z,11.84
2022-10-03T03:20:11.279Z,11.81
2022-10-03T03:22:59.095Z,11.82
2022-10-03T03:25:46.576Z,11.83
2022-10-03T03:28:32.497Z,11.82
2022-10-03T03:31:17.000Z,11.80
2022-10-03T03:34:01.460Z,11.83
2022-10-03T03:36:49.809Z,11.88
2022-10-03T03:40:24.481Z,11.95
2022-10-03T03:43:13.366Z,12.06
2022-10-03T03:45:55.098Z,12.14
2022-10-03T03:48:39.755Z,12.21
2022-10-03T03:51:43.257Z,12.28
2022-10-03T03:54:26.414Z,12.37
2022-10-03T03:57:21.961Z,12.39
2022-10-03T04:00:31.409Z,12.42
2022-10-03T04:03:20.828Z,12.41
2022-10-03T04:06:14.787Z,12.38
2022-10-03T04:09:15.864Z,12.34
2022-10-03T04:12:15.015Z,12.26
2022-10-03T04:15:15.698Z,12.21
2022-10-03T04:18:18.910Z,12.14
2022-10-03T04:21:09.885Z,12.11
2022-10-03T04:24:03.745Z,12.07
2022-10-03T04:26:49.245Z,12.05
2022-10-03T04:29:47.109Z,12.06
2022-10-03T04:32:46.688Z,12.04
2022-10-03T04:35:31.425Z,12.01
2022-10-03T04:38:32.712Z,12.00
2022-10-03T04:41:43.277Z,11.99
2022-10-03T04:44:35.952Z,11.98
2022-10-03T04:50:31.324Z,11.91
2022-10-03T04:53:20.013Z,11.89
2022-10-03T04:56:13.729Z,11.89
2022-10-03T04:58:59.361Z,11.89
2022-10-03T05:01:50.762Z,11.87
2022-10-03T05:04:55.798Z,11.87
2022-10-03T05:07:58.803Z,11.86
2022-10-03T05:10:53.541Z,11.84
2022-10-03T05:13:43.128Z,11.86
2022-10-03T05:16:29.463Z,11.89
2022-10-03T05:19:27.515Z,11.92
2022-10-03T05:22:32.886Z,11.97
2022-10-03T05:27:40.714Z,12.04
2022-10-03T05:30:25.845Z,12.08
2022-10-03T05:33:37.789Z,12.09
2022-10-03T05:36:26.008Z,12.15
2022-10-03T05:39:29.187Z,12.25
2022-10-03T05:42:34.996Z,12.34
2022-10-03T05:45:22.077Z,12.47
2022-10-03T05:48:30.802Z,12.58
2022-10-03T05:51:37.277Z,12.78
2022-10-03T05:54:22.594Z,13.03
2022-10-03T05:57:25.850Z,13.45
2022-10-03T06:00:27.313Z,13.75
2022-10-03T06:03:24.016Z,14.19
2022-10-03T06:06:12.501Z,14.49
2022-10-03T06:08:57.725Z,14.71
2022-10-03T06:12:02.251Z,14.77
2022-10-03T06:14:54.826Z,15.16
2022-10-03T06:18:03.482Z,15.80
2022-10-03T06:21:05.325Z,15.51
2022-10-03T06:23:58.074Z,15.40
2022-10-03T06:27:02.122Z,15.27
2022-10-03T06:30:20.003Z,15.01
2022-10-03T06:33:08.375Z,14.46
2022-10-03T06:36:03.007Z,14.39
2022-10-03T06:38:52.179Z,14.31
2022-10-03T06:41:56.233Z,14.23
2022-10-03T06:44:56.559Z,14.17
2022-10-03T06:47:42.137Z,14.31
2022-10-03T06:50:53.343Z,14.32
2022-10-03T06:53:46.550Z,14.19
2022-10-03T06:56:49.791Z,14.10
2022-10-03T06:59:46.978Z,14.04
2022-10-03T07:02:58.793Z,14.05
2022-10-03T07:05:47.324Z,14.03
2022-10-03T07:08:55.159Z,14.00
2022-10-03T07:12:04.658Z,14.23
2022-10-03T07:14:58.629Z,14.30
2022-10-03T07:17:47.336Z,14.53
2022-10-03T07:20:53.636Z,14.61
2022-10-03T07:23:51.999Z,14.65
2022-10-03T07:26:43.586Z,14.82
2022-10-03T07:29:36.551Z,14.87
2022-10-03T07:32:24.758Z,15.01
2022-10-03T07:35:19.293Z,15.11
2022-10-03T07:38:47.823Z,15.14
2022-10-03T07:41:39.338Z,15.21
2022-10-03T07:44:42.681Z,15.49
2022-10-03T07:47:30.973Z,15.29
2022-10-03T07:50:25.174Z,15.21
2022-10-03T07:53:25.894Z,15.21
2022-10-03T07:56:24.276Z,15.40
2022-10-03T07:59:26.057Z,15.48
2022-10-03T08:02:56.016Z,15.35
2022-10-03T08:05:50.351Z,15.27
2022-10-03T08:08:41.921Z,15.39
2022-10-03T08:11:37.004Z,15.42
2022-10-03T08:14:41.160Z,15.52
2022-10-03T08:17:45.410Z,15.63
2022-10-03T08:20:42.751Z,15.63
2022-10-03T08:23:34.180Z,15.58
2022-10-03T08:26:28.841Z,15.60
2022-10-03T08:29:26.543Z,15.53
2022-10-03T08:32:31.293Z,15.52
2022-10-03T08:35:19.827Z,15.50
2022-10-03T08:38:28.168Z,15.53
2022-10-03T08:41:13.714Z,15.63
2022-10-03T08:44:14.377Z,15.53
2022-10-03T08:47:02.378Z,15.48
2022-10-03T08:49:54.574Z,15.60
2022-10-03T08:52:43.633Z,15.71
2022-10-03T08:55:38.221Z,15.75
2022-10-03T08:58:29.561Z,15.88
2022-10-03T09:01:22.371Z,15.90
2022-10-03T09:04:16.708Z,15.87
2022-10-03T09:07:18.659Z,16.06
2022-10-03T09:10:23.746Z,15.99
2022-10-03T09:13:12.118Z,16.02
2022-10-03T09:16:03.802Z,16.08
2022-10-03T09:19:07.695Z,16.09
2022-10-03T09:22:04.493Z,16.21
2022-10-03T09:25:08.089Z,16.13
2022-10-03T09:28:00.750Z,16.17
2022-10-03T09:31:05.228Z,16.36
2022-10-03T09:33:51.020Z,16.34
2022-10-03T09:36:55.194Z,16.32
2022-10-03T09:40:10.324Z,16.37
2022-10-03T09:43:15.381Z,16.28
2022-10-03T09:46:22.699Z,16.29
2022-10-03T09:49:32.519Z,16.44
2022-10-03T09:52:22.499Z,16.63
2022-10-03T09:55:18.267Z,16.74
2022-10-03T09:58:06.975Z,16.84
2022-10-03T10:01:19.964Z,16.94
2022-10-03T10:04:43.504Z,16.95
2022-10-03T10:11:03.578Z,17.30
2022-10-03T10:14:07.597Z,17.42
2022-10-03T10:17:06.729Z,17.19
2022-10-03T10:19:55.132Z,16.85
2022-10-03T10:22:59.698Z,16.59
2022-10-03T10:25:57.309Z,16.47
2022-10-03T10:28:56.319Z,16.43
2022-10-03T10:31:54.822Z,16.49
2022-10-03T10:34:43.530Z,16.44
2022-10-03T10:37:47.592Z,16.50
2022-10-03T10:40:51.714Z,16.51
2022-10-03T10:43:57.498Z,16.53
2022-10-03T10:47:01.561Z,16.35
2022-10-03T10:50:05.950Z,16.23
2022-10-03T10:52:51.507Z,16.42
2022-10-03T10:55:42.885Z,16.39
2022-10-03T10:58:59.475Z,16.66
2022-10-03T11:01:59.771Z,16.53
2022-10-03T11:04:48.162Z,16.44
2022-10-03T11:07:54.120Z,16.28
2022-10-03T11:10:52.484Z,16.24
2022-10-03T11:13:50.676Z,16.16
2022-10-03T11:16:55.399Z,15.84
2022-10-03T11:19:41.947Z,15.77
2022-10-03T11:22:46.628Z,15.90
2022-10-03T11:25:31.779Z,15.82
2022-10-03T11:28:18.998Z,16.05
2022-10-03T11:31:15.864Z,16.20
2022-10-03T11:34:04.395Z,16.23
2022-10-03T11:37:08.309Z,16.38
2022-10-03T11:39:53.733Z,16.50
2022-10-03T11:42:42.057Z,16.65
2022-10-03T11:45:33.725Z,16.70
2022-10-03T11:48:19.552Z,16.59
2022-10-03T11:51:05.523Z,16.72
2022-10-03T11:54:19.290Z,16.61
2022-10-03T11:57:16.582Z,16.76
2022-10-03T12:00:02.312Z,16.61
2022-10-03T12:03:06.587Z,16.67
2022-10-03T12:06:31.109Z,16.48
2022-10-03T12:09:18.978Z,16.56
2022-10-03T12:12:09.794Z,16.64
2022-10-03T12:14:57.815Z,16.66
2022-10-03T12:17:46.437Z,16.90
2022-10-03T12:20:47.341Z,16.83
2022-10-03T12:23:35.655Z,16.83
2022-10-03T12:26:44.399Z,16.67
2022-10-03T12:29:32.586Z,16.67
2022-10-03T12:32:29.859Z,17.00
2022-10-03T12:35:27.027Z,16.95
2022-10-03T12:38:12.465Z,16.83
2022-10-03T12:41:31.912Z,16.90
2022-10-03T12:44:28.829Z,16.95
2022-10-03T12:47:37.542Z,16.94
2022-10-03T12:50:29.464Z,16.90
2022-10-03T12:53:18.014Z,17.12
2022-10-03T12:56:07.443Z,17.17
2022-10-03T12:58:52.791Z,17.11
2022-10-03T13:01:53.020Z,17.02
2022-10-03T13:04:39.238Z,16.91
2022-10-03T13:07:28.500Z,16.77
2022-10-03T13:10:19.954Z,16.96
2022-10-03T13:13:06.067Z,16.81
2022-10-03T13:16:04.562Z,16.68
2022-10-03T13:19:06.685Z,16.67
2022-10-03T13:21:46.838Z,16.78
2022-10-03T13:24:22.442Z,16.75
2022-10-03T13:27:08.736Z,16.57
2022-10-03T13:29:45.450Z,16.54
2022-10-03T13:32:16.504Z,16.53
2022-10-03T13:35:32.983Z,16.55
2022-10-03T13:38:07.826Z,16.61
2022-10-03T13:40:43.478Z,16.82
2022-10-03T13:43:13.832Z,16.76
2022-10-03T13:45:44.485Z,16.76
2022-10-03T13:48:14.176Z,16.80
2022-10-03T13:50:47.170Z,16.85
2022-10-03T13:53:37.834Z,16.92
2022-10-03T13:56:10.343Z,16.97
2022-10-03T13:58:54.078Z,16.95
2022-10-03T14:01:39.943Z,17.00
2022-10-03T14:04:14.717Z,16.75
2022-10-03T14:09:41.585Z,16.97
2022-10-03T14:15:18.769Z,17.03
2022-10-03T14:17:54.608Z,17.06
2022-10-03T14:20:40.139Z,16.95
2022-10-03T14:23:14.536Z,16.86
2022-10-03T14:25:44.375Z,16.76
2022-10-03T14:28:18.297Z,16.73
2022-10-03T14:31:05.997Z,16.67
2022-10-03T14:33:33.534Z,16.63
2022-10-03T14:36:15.552Z,16.61
2022-10-03T14:39:00.762Z,16.71
2022-10-03T14:41:30.774Z,16.87
2022-10-03T14:43:59.935Z,17.07
2022-10-03T14:46:29.331Z,17.22
2022-10-03T14:48:59.634Z,17.25
2022-10-03T14:51:29.938Z,17.23
2022-10-03T14:54:05.368Z,17.21
2022-10-03T14:56:34.616Z,17.06
2022-10-03T14:59:03.567Z,17.07
2022-10-03T15:01:30.639Z,17.15
2022-10-03T15:04:03.255Z,17.01
2022-10-03T15:06:33.210Z,17.03
2022-10-03T15:09:02.717Z,17.06
2022-10-03T15:11:31.138Z,17.14
2022-10-03T15:14:02.643Z,17.19
2022-10-03T15:16:34.522Z,17.08
2022-10-03T15:19:07.159Z,16.86
2022-10-03T15:21:34.594Z,16.76
2022-10-03T15:24:15.162Z,16.68
2022-10-03T15:26:47.610Z,16.58
2022-10-03T15:29:16.530Z,16.54
2022-10-03T15:31:46.371Z,16.39
2022-10-03T15:34:22.713Z,16.35
2022-10-03T15:36:51.072Z,16.16
2022-10-03T15:39:20.730Z,16.09
2022-10-03T15:42:07.863Z,15.90
2022-10-03T15:44:39.959Z,15.78
2022-10-03T15:47:09.879Z,15.80
2022-10-03T15:49:38.939Z,15.81
2022-10-03T15:52:08.156Z,15.71
2022-10-03T15:54:38.800Z,15.71
2022-10-03T15:57:07.518Z,15.70
2022-10-03T15:59:36.871Z,15.75
2022-10-03T16:02:16.525Z,15.84
2022-10-03T16:04:45.175Z,15.77
2022-10-03T16:07:11.777Z,15.68
2022-10-03T16:09:51.473Z,15.66
2022-10-03T16:12:35.444Z,15.69
2022-10-03T16:18:31.022Z,15.51
2022-10-03T16:20:59.171Z,15.35
2022-10-03T16:23:40.618Z,15.23
2022-10-03T16:26:11.797Z,15.12
2022-10-03T16:28:41.946Z,15.04
2022-10-03T16:31:17.587Z,15.01
2022-10-03T16:33:55.859Z,15.02
2022-10-03T16:36:25.801Z,15.05
2022-10-03T16:38:56.384Z,15.05
2022-10-03T16:41:31.891Z,15.14
2022-10-03T16:43:59.875Z,15.05
2022-10-03T16:46:32.256Z,15.12
2022-10-03T16:49:47.563Z,15.04
2022-10-03T16:52:15.468Z,15.04
2022-10-03T16:54:42.384Z,15.04
2022-10-03T16:57:13.169Z,15.06
2022-10-03T16:59:42.057Z,15.00
2022-10-03T17:02:14.322Z,14.97
2022-10-03T17:04:44.451Z,14.91
2022-10-03T17:07:25.108Z,14.85
2022-10-03T17:09:55.872Z,14.80
2022-10-03T17:12:40.398Z,14.76
2022-10-03T17:15:08.866Z,14.75
2022-10-03T17:17:45.467Z,14.75
2022-10-03T17:20:22.703Z,14.71
2022-10-03T17:22:57.491Z,14.63
2022-10-03T17:25:34.267Z,14.58
2022-10-03T17:28:04.104Z,14.49
2022-10-03T17:30:48.187Z,14.43
2022-10-03T17:33:31.223Z,14.47
2022-10-03T17:36:44.680Z,14.24
2022-10-03T17:39:22.591Z,14.15
2022-10-03T17:41:58.059Z,14.10
2022-10-03T17:44:51.331Z,14.07
2022-10-03T17:47:30.576Z,14.00
2022-10-03T17:50:04.266Z,13.96
2022-10-03T17:52:33.196Z,13.92
2022-10-03T17:55:04.880Z,13.87
2022-10-03T17:57:39.523Z,13.82
2022-10-03T18:00:09.830Z,13.75
2022-10-03T18:02:56.880Z,13.68
2022-10-03T18:05:33.308Z,13.67
2022-10-03T18:08:20.091Z,13.68
2022-10-03T18:10:49.442Z,13.71
2022-10-03T18:13:21.531Z,13.73
2022-10-03T18:16:04.039Z,13.74
2022-10-03T18:18:39.824Z,13.76
2022-10-03T18:21:10.810Z,13.76
2022-10-03T18:23:56.295Z,13.75
2022-10-03T18:26:28.614Z,13.74
2022-10-03T18:28:58.299Z,13.76
2022-10-03T18:31:25.755Z,13.83
2022-10-03T18:33:59.770Z,13.85
2022-10-03T18:36:29.010Z,13.79
2022-10-03T18:38:59.210Z,13.82
2022-10-03T18:41:26.056Z,13.78
2022-10-03T18:43:59.804Z,13.78
2022-10-03T18:46:32.521Z,13.78
2022-10-03T18:52:06.864Z,13.80
2022-10-03T18:54:36.360Z,13.80
2022-10-03T18:57:08.370Z,13.75
2022-10-03T18:59:51.903Z,13.71
2022-10-03T19:02:24.612Z,13.75
2022-10-03T19:05:02.766Z,13.74
2022-10-03T19:07:32.878Z,13.77
2022-10-03T19:10:18.420Z,13.77
2022-10-03T19:12:50.748Z,13.70
2022-10-03T19:15:42.837Z,13.67
2022-10-03T19:18:20.938Z,13.63
2022-10-03T19:20:51.726Z,13.59
2022-10-03T19:23:26.436Z,13.62
2022-10-03T19:25:58.468Z,13.58
2022-10-03T19:28:30.721Z,13.62
2022-10-03T19:31:00.507Z,13.66
2022-10-03T19:33:27.710Z,13.68
2022-10-03T19:35:58.065Z,13.71
2022-10-03T19:38:27.850Z,13.63
2022-10-03T19:41:00.286Z,13.70
2022-10-03T19:43:33.335Z,13.71
2022-10-03T19:46:06.218Z,13.75
2022-10-03T19:48:34.025Z,13.77
2022-10-03T19:51:14.234Z,13.79
2022-10-03T19:53:44.808Z,13.78
2022-10-03T19:56:15.798Z,13.76
2022-10-03T19:58:45.067Z,13.75
2022-10-03T20:01:12.057Z,13.73
2022-10-03T20:03:41.247Z,13.69
2022-10-03T20:06:33.299Z,13.63
2022-10-03T20:09:28.196Z,13.61
2022-10-03T20:12:06.488Z,13.57
2022-10-03T20:14:37.462Z,13.48
2022-10-03T20:17:05.156Z,13.48
2022-10-03T20:19:43.828Z,13.50
2022-10-03T20:22:12.919Z,13.56
2022-10-03T20:24:42.658Z,13.58
2022-10-03T20:27:28.223Z,13.62
2022-10-03T20:29:58.291Z,13.69
2022-10-03T20:32:25.912Z,13.74
2022-10-03T20:34:55.971Z,13.76
2022-10-03T20:37:38.687Z,13.80
2022-10-03T20:40:24.808Z,13.77
2022-10-03T20:42:53.964Z,13.73
2022-10-03T20:45:26.439Z,13.68
2022-10-03T20:47:59.385Z,13.66
2022-10-03T20:50:34.815Z,13.63
2022-10-03T20:53:03.014Z,13.64
2022-10-03T20:55:37.231Z,13.58
2022-10-03T20:58:20.720Z,13.59
2022-10-03T21:00:54.860Z,13.57
2022-10-03T21:03:24.827Z,13.55
2022-10-03T21:05:54.048Z,13.51
2022-10-03T21:08:26.088Z,13.52
2022-10-03T21:10:54.959Z,13.54
2022-10-03T21:13:41.730Z,13.53
2022-10-03T21:16:23.378Z,13.51
2022-10-03T21:18:51.224Z,13.51
2022-10-03T21:21:28.033Z,13.47
2022-10-03T21:23:57.823Z,13.45
2022-10-03T21:26:30.051Z,13.46
2022-10-03T21:29:17.551Z,13.43
2022-10-03T21:32:07.668Z,13.38
2022-10-03T21:34:49.636Z,13.34
2022-10-03T21:37:27.367Z,13.33
2022-10-03T21:40:02.285Z,13.34
2022-10-03T21:42:32.510Z,13.25
2022-10-03T21:45:12.538Z,13.16
2022-10-03T21:47:48.915Z,13.14
2022-10-03T21:50:19.471Z,13.13
2022-10-03T21:52:55.483Z,13.11
2022-10-03T21:55:39.213Z,13.03
2022-10-03T21:58:08.727Z,13.00
2022-10-03T22:00:56.451Z,12.97
2022-10-03T22:03:27.557Z,12.92
2022-10-03T22:05:58.732Z,12.86
2022-10-03T22:08:40.319Z,12.84
2022-10-03T22:11:06.891Z,12.83
2022-10-03T22:13:35.740Z,12.83
2022-10-03T22:16:05.571Z,12.84
2022-10-03T22:18:40.162Z,12.79
2022-10-03T22:21:12.647Z,12.77
2022-10-03T22:23:39.669Z,12.74
2022-10-03T22:26:23.937Z,12.73
2022-10-03T22:29:01.705Z,12.72
2022-10-03T22:31:49.176Z,12.70
2022-10-03T22:34:34.646Z,12.68
2022-10-03T22:37:01.660Z,12.62
2022-10-03T22:39:28.817Z,12.60
2022-10-03T22:41:58.649Z,12.57
2022-10-03T22:44:27.372Z,12.53
2022-10-03T22:46:55.978Z,12.49
2022-10-03T22:49:25.757Z,12.49
2022-10-03T22:51:54.246Z,12.48
2022-10-03T22:54:22.245Z,12.47
2022-10-03T22:56:49.171Z,12.44
2022-10-03T22:59:28.951Z,12.43
2022-10-03T23:01:58.409Z,12.39
2022-10-03T23:04:31.036Z,12.39
2022-10-03T23:07:20.958Z,12.38
2022-10-03T23:09:50.779Z,12.37
2022-10-03T23:12:18.855Z,12.37
2022-10-03T23:14:48.257Z,12.36
2022-10-03T23:17:28.350Z,12.36
2022-10-03T23:20:14.156Z,12.34
2022-10-03T23:22:43.765Z,12.31
2022-10-03T23:25:18.733Z,12.30
2022-10-03T23:28:00.356Z,12.29
2022-10-03T23:30:29.300Z,12.28
2022-10-03T23:32:56.356Z,12.25
2022-10-03T23:35:28.767Z,12.24
2022-10-03T23:37:55.543Z,12.23
2022-10-03T23:40:25.853Z,12.24
2022-10-03T23:43:05.094Z,12.22
2022-10-03T23:45:33.781Z,12.17
2022-10-03T23:48:07.002Z,12.19
2022-10-03T23:50:40.035Z,12.15
2022-10-03T23:53:07.710Z,12.12
2022-10-03T23:55:36.213Z,12.10
2022-10-03T23:58:15.545Z,12.10
